createdAt,value
2023-01-21T00:02:12.461Z,0.53
2023-01-21T00:05:24.605Z,0.54
2023-01-21T00:08:36.964Z,0.51
2023-01-21T00:11:49.029Z,0.58
2023-01-21T00:15:01.079Z,0.60
2023-01-21T00:18:14.123Z,0.59
2023-01-21T00:21:26.198Z,0.66
2023-01-21T00:24:38.308Z,0.70
2023-01-21T00:27:50.305Z,0.72
2023-01-21T00:31:08.038Z,0.74
2023-01-21T00:34:21.576Z,0.76
2023-01-21T00:37:33.691Z,0.76
2023-01-21T00:40:45.886Z,0.75
2023-01-21T00:43:58.622Z,0.79
2023-01-21T00:47:11.222Z,0.78
2023-01-21T00:50:24.054Z,0.77
2023-01-21T00:53:38.323Z,0.78
2023-01-21T00:56:50.457Z,0.71
2023-01-21T01:00:02.710Z,0.69
2023-01-21T01:03:15.018Z,0.70
2023-01-21T01:06:29.848Z,0.71
2023-01-21T01:09:42.193Z,0.73
2023-01-21T01:12:54.152Z,0.68
2023-01-21T01:16:06.371Z,0.71
2023-01-21T01:19:19.328Z,0.69
2023-01-21T01:22:31.338Z,0.73
2023-01-21T01:25:43.431Z,0.75
2023-01-21T01:28:56.674Z,0.76
2023-01-21T01:32:11.760Z,0.77
2023-01-21T01:35:23.948Z,0.79
2023-01-21T01:38:36.892Z,0.78
2023-01-21T01:41:49.272Z,0.79
2023-01-21T01:45:08.262Z,0.76
2023-01-21T01:48:24.710Z,0.75
2023-01-21T01:51:46.792Z,0.73
2023-01-21T01:55:03.492Z,0.73
2023-01-21T01:58:20.217Z,0.71
2023-01-21T02:01:30.805Z,0.68
2023-01-21T02:04:48.915Z,0.69
2023-01-21T02:08:01.034Z,0.67
2023-01-21T02:11:19.390Z,0.66
2023-01-21T02:14:31.697Z,0.70
2023-01-21T02:17:58.748Z,0.69
2023-01-21T02:21:50.616Z,0.69
2023-01-21T02:25:51.593Z,0.69
2023-01-21T02:29:57.199Z,0.65
2023-01-21T02:33:37.605Z,0.68
2023-01-21T02:37:12.695Z,0.65
2023-01-21T02:40:32.642Z,0.64
2023-01-21T02:43:51.951Z,0.61
2023-01-21T02:47:09.584Z,0.58
2023-01-21T02:50:25.353Z,0.59
2023-01-21T02:53:40.471Z,0.59
2023-01-21T02:56:52.715Z,0.59
2023-01-21T03:00:06.047Z,0.59
2023-01-21T03:04:00.245Z,0.60
2023-01-21T03:07:19.054Z,0.58
2023-01-21T03:10:36.985Z,0.57
2023-01-21T03:14:08.837Z,0.58
2023-01-21T03:17:28.873Z,0.63
2023-01-21T03:20:44.856Z,0.61
2023-01-21T03:24:00.061Z,0.60
2023-01-21T03:27:13.959Z,0.60
2023-01-21T03:30:29.762Z,0.62
2023-01-21T03:33:46.893Z,0.60
2023-01-21T03:37:04.134Z,0.59
2023-01-21T03:40:29.989Z,0.58
2023-01-21T03:43:42.245Z,0.60
2023-01-21T03:47:01.057Z,0.63
2023-01-21T03:50:19.349Z,0.62
2023-01-21T03:53:31.996Z,0.63
2023-01-21T03:56:44.266Z,0.62
2023-01-21T03:59:56.407Z,0.63
2023-01-21T04:03:08.581Z,0.60
2023-01-21T04:06:23.683Z,0.62
2023-01-21T04:09:36.071Z,0.58
2023-01-21T04:12:48.227Z,0.55
2023-01-21T04:16:00.176Z,0.59
2023-01-21T04:19:12.489Z,0.61
2023-01-21T04:22:24.795Z,0.58
2023-01-21T04:25:36.788Z,0.58
2023-01-21T04:28:49.004Z,0.59
2023-01-21T04:32:01.251Z,0.59
2023-01-21T04:35:15.629Z,0.59
2023-01-21T04:38:27.580Z,0.58
2023-01-21T04:41:39.601Z,0.62
2023-01-21T04:44:52.294Z,0.56
2023-01-21T04:48:04.110Z,0.57
2023-01-21T04:51:16.259Z,0.59
2023-01-21T04:54:28.318Z,0.59
2023-01-21T04:57:42.349Z,0.57
2023-01-21T05:00:54.897Z,0.60
2023-01-21T05:04:07.286Z,0.60
2023-01-21T05:07:21.632Z,0.62
2023-01-21T05:10:33.529Z,0.58
2023-01-21T05:13:45.532Z,0.59
2023-01-21T05:16:57.630Z,0.62
2023-01-21T05:20:11.275Z,0.61
2023-01-21T05:23:23.237Z,0.54
2023-01-21T05:26:35.398Z,0.66
2023-01-21T05:29:47.710Z,0.65
2023-01-21T05:33:01.384Z,0.66
2023-01-21T05:36:15.685Z,0.70
2023-01-21T05:39:27.715Z,0.68
2023-01-21T05:42:40.212Z,0.66
2023-01-21T05:45:52.558Z,0.65
2023-01-21T05:49:04.831Z,0.68
2023-01-21T05:52:17.350Z,0.69
2023-01-21T05:55:29.355Z,0.69
2023-01-21T05:58:42.019Z,0.68
2023-01-21T06:01:54.258Z,0.63
2023-01-21T06:05:06.196Z,0.63
2023-01-21T06:08:19.101Z,0.68
2023-01-21T06:11:31.396Z,0.65
2023-01-21T06:14:43.699Z,0.64
2023-01-21T06:17:55.805Z,0.65
2023-01-21T06:21:08.403Z,0.65
2023-01-21T06:24:24.330Z,0.67
2023-01-21T06:27:37.365Z,0.66
2023-01-21T06:30:49.566Z,0.65
2023-01-21T06:34:01.577Z,0.66
2023-01-21T06:37:13.672Z,0.69
2023-01-21T06:40:25.918Z,0.71
2023-01-21T06:43:38.376Z,0.71
2023-01-21T06:47:00.699Z,0.71
2023-01-21T06:50:04.729Z,0.67
2023-01-21T06:53:16.940Z,0.69
2023-01-21T06:56:31.516Z,0.69
2023-01-21T06:59:44.125Z,0.70
2023-01-21T07:02:58.250Z,0.73
2023-01-21T07:06:10.999Z,0.73
2023-01-21T07:09:23.614Z,0.75
2023-01-21T07:12:35.857Z,0.71
2023-01-21T07:15:47.976Z,0.75
2023-01-21T07:19:00.384Z,0.74
2023-01-21T07:22:12.756Z,0.74
2023-01-21T07:25:25.644Z,0.77
2023-01-21T07:28:37.684Z,0.77
2023-01-21T07:31:49.973Z,0.80
2023-01-21T07:35:02.296Z,0.81
2023-01-21T07:38:14.374Z,0.78
2023-01-21T07:41:28.825Z,0.78
2023-01-21T07:44:41.461Z,0.80
2023-01-21T07:47:53.566Z,0.85
2023-01-21T07:51:06.621Z,0.81
2023-01-21T07:54:19.938Z,0.84
2023-01-21T07:57:32.189Z,0.85
2023-01-21T08:00:44.374Z,0.84
2023-01-21T08:03:56.440Z,0.82
2023-01-21T08:07:11.850Z,0.83
2023-01-21T08:10:25.473Z,0.86
2023-01-21T08:13:37.472Z,0.91
2023-01-21T08:16:49.456Z,0.90
2023-01-21T08:20:01.630Z,0.86
2023-01-21T08:23:13.635Z,0.83
2023-01-21T08:26:25.901Z,0.85
2023-01-21T08:29:38.138Z,0.92
2023-01-21T08:32:50.237Z,0.96
2023-01-21T08:36:07.109Z,0.99
2023-01-21T08:39:21.014Z,1.00
2023-01-21T08:42:33.202Z,1.03
2023-01-21T08:45:45.544Z,1.02
2023-01-21T08:48:57.769Z,0.99
2023-01-21T08:52:10.456Z,1.06
2023-01-21T08:55:25.318Z,1.11
2023-01-21T08:58:39.301Z,1.12
2023-01-21T09:01:51.451Z,1.14
2023-01-21T09:05:03.627Z,1.14
2023-01-21T09:08:15.834Z,1.17
2023-01-21T09:11:28.228Z,1.20
2023-01-21T09:14:40.459Z,1.17
2023-01-21T09:17:52.601Z,1.16
2023-01-21T09:21:10.916Z,1.24
2023-01-21T09:24:23.735Z,1.20
2023-01-21T09:27:35.927Z,1.25
2023-01-21T09:30:47.911Z,1.24
2023-01-21T09:34:03.800Z,1.26
2023-01-21T09:37:15.937Z,1.22
2023-01-21T09:40:28.199Z,1.19
2023-01-21T09:43:45.933Z,1.27
2023-01-21T09:47:05.275Z,1.28
2023-01-21T09:50:21.939Z,1.39
2023-01-21T09:53:42.604Z,1.39
2023-01-21T09:57:23.246Z,1.45
2023-01-21T10:00:47.644Z,1.48
2023-01-21T10:04:04.250Z,1.50
2023-01-21T10:07:20.490Z,1.54
2023-01-21T10:10:37.919Z,1.54
2023-01-21T10:14:04.175Z,1.51
2023-01-21T10:17:22.490Z,1.55
2023-01-21T10:20:40.495Z,1.48
2023-01-21T10:23:57.727Z,1.56
2023-01-21T10:27:12.916Z,1.51
2023-01-21T10:30:35.645Z,1.60
2023-01-21T10:33:48.485Z,1.57
2023-01-21T10:37:10.001Z,1.57
2023-01-21T10:40:40.884Z,1.65
2023-01-21T10:43:58.895Z,1.67
2023-01-21T10:47:18.548Z,1.61
2023-01-21T10:50:41.599Z,1.70
2023-01-21T10:53:58.135Z,1.73
2023-01-21T10:57:16.701Z,1.80
2023-01-21T11:00:32.572Z,1.74
2023-01-21T11:03:48.753Z,1.68
2023-01-21T11:07:06.671Z,1.74
2023-01-21T11:10:26.572Z,1.68
2023-01-21T11:13:41.177Z,1.74
2023-01-21T11:16:55.603Z,1.67
2023-01-21T11:20:11.179Z,1.74
2023-01-21T11:23:35.632Z,1.87
2023-01-21T11:26:55.766Z,1.81
2023-01-21T11:30:31.450Z,1.91
2023-01-21T11:33:33.575Z,1.95
2023-01-21T11:36:59.600Z,1.98
2023-01-21T11:40:20.928Z,2.04
2023-01-21T11:43:46.623Z,2.00
2023-01-21T11:46:59.231Z,2.05
2023-01-21T11:50:23.272Z,1.96
2023-01-21T11:53:35.472Z,2.02
2023-01-21T11:56:51.105Z,2.00
2023-01-21T12:00:13.186Z,1.98
2023-01-21T12:03:29.198Z,1.89
2023-01-21T12:06:41.617Z,1.96
2023-01-21T12:10:02.352Z,1.94
2023-01-21T12:13:28.226Z,1.97
2023-01-21T12:16:44.555Z,1.87
2023-01-21T12:20:11.574Z,1.86
2023-01-21T12:23:54.243Z,1.94
2023-01-21T12:27:15.319Z,1.91
2023-01-21T12:30:36.307Z,1.89
2023-01-21T12:34:00.513Z,1.82
2023-01-21T12:37:18.423Z,1.77
2023-01-21T12:40:36.146Z,1.83
2023-01-21T12:43:54.567Z,1.93
2023-01-21T12:47:16.027Z,2.00
2023-01-21T12:50:35.405Z,2.04
2023-01-21T12:53:53.683Z,2.02
2023-01-21T12:57:11.435Z,1.98
2023-01-21T13:00:30.654Z,1.80
2023-01-21T13:03:52.894Z,1.85
2023-01-21T13:07:12.184Z,1.81
2023-01-21T13:10:30.689Z,1.83
2023-01-21T13:13:48.564Z,1.87
2023-01-21T13:17:05.141Z,1.66
2023-01-21T13:20:26.684Z,1.63
2023-01-21T13:23:44.535Z,1.71
2023-01-21T13:27:05.250Z,1.78
2023-01-21T13:30:27.528Z,1.70
2023-01-21T13:33:48.395Z,1.82
2023-01-21T13:37:13.411Z,1.86
2023-01-21T13:40:38.742Z,1.75
2023-01-21T13:44:11.098Z,1.70
2023-01-21T13:47:34.613Z,1.65
2023-01-21T13:51:19.076Z,1.56
2023-01-21T13:55:08.594Z,1.56
2023-01-21T13:58:26.684Z,1.55
2023-01-21T14:01:45.178Z,1.51
2023-01-21T14:05:02.312Z,1.49
2023-01-21T14:08:18.603Z,1.44
2023-01-21T14:11:34.322Z,1.37
2023-01-21T14:15:21.444Z,1.29
2023-01-21T14:19:07.056Z,1.33
2023-01-21T14:22:44.512Z,1.25
2023-01-21T14:26:26.744Z,1.22
2023-01-21T14:29:46.589Z,1.21
2023-01-21T14:33:02.883Z,1.16
2023-01-21T14:36:20.529Z,1.20
2023-01-21T14:39:51.542Z,1.19
2023-01-21T14:43:04.331Z,1.22
2023-01-21T14:46:33.681Z,1.21
2023-01-21T14:49:51.529Z,1.20
2023-01-21T14:53:04.308Z,1.11
2023-01-21T14:56:29.137Z,1.15
2023-01-21T14:59:46.266Z,1.17
2023-01-21T15:03:11.482Z,1.12
2023-01-21T15:06:28.064Z,1.07
2023-01-21T15:09:46.021Z,1.03
2023-01-21T15:13:02.442Z,1.05
2023-01-21T15:16:24.037Z,1.05
2023-01-21T15:19:39.009Z,1.10
2023-01-21T15:22:51.112Z,1.02
2023-01-21T15:26:37.263Z,1.02
2023-01-21T15:29:51.247Z,1.04
2023-01-21T15:33:03.956Z,1.01
2023-01-21T15:36:31.931Z,1.03
2023-01-21T15:39:44.879Z,1.02
2023-01-21T15:43:04.859Z,1.05
2023-01-21T15:46:29.286Z,1.07
2023-01-21T15:49:56.929Z,1.10
2023-01-21T15:53:36.671Z,1.13
2023-01-21T15:57:23.491Z,1.14
2023-01-21T16:00:43.942Z,1.16
2023-01-21T16:04:08.404Z,1.14
2023-01-21T16:07:29.627Z,1.17
2023-01-21T16:10:48.835Z,1.22
2023-01-21T16:14:07.844Z,1.24
2023-01-21T16:17:26.114Z,1.25
2023-01-21T16:20:39.315Z,1.16
2023-01-21T16:23:52.178Z,1.13
2023-01-21T16:27:22.933Z,1.18
2023-01-21T16:30:37.437Z,1.17
2023-01-21T16:33:50.675Z,1.17
2023-01-21T16:37:02.987Z,1.15
2023-01-21T16:40:35.984Z,1.03
2023-01-21T16:43:52.085Z,1.03
2023-01-21T16:47:04.479Z,1.06
2023-01-21T16:50:28.995Z,1.09
2023-01-21T16:53:41.117Z,1.07
2023-01-21T16:56:57.857Z,1.01
2023-01-21T17:00:16.666Z,1.02
2023-01-21T17:03:28.744Z,1.01
2023-01-21T17:06:40.801Z,1.04
2023-01-21T17:09:58.715Z,1.02
2023-01-21T17:13:18.688Z,1.06
2023-01-21T17:16:37.988Z,1.11
2023-01-21T17:19:51.141Z,1.07
2023-01-21T17:23:10.373Z,1.03
2023-01-21T17:26:26.876Z,1.07
2023-01-21T17:29:40.415Z,1.13
2023-01-21T17:33:00.428Z,1.10
2023-01-21T17:36:19.385Z,1.08
2023-01-21T17:40:06.369Z,1.10
2023-01-21T17:43:26.113Z,1.12
2023-01-21T17:46:38.952Z,1.15
2023-01-21T17:49:52.948Z,1.12
2023-01-21T17:53:10.545Z,1.13
2023-01-21T17:56:38.762Z,1.12
2023-01-21T17:59:52.905Z,1.19
2023-01-21T18:03:05.646Z,1.18
2023-01-21T18:06:24.837Z,1.17
2023-01-21T18:09:38.244Z,1.19
2023-01-21T18:12:50.545Z,1.20
2023-01-21T18:16:02.768Z,1.13
2023-01-21T18:19:31.409Z,1.12
2023-01-21T18:22:43.765Z,1.17
2023-01-21T18:25:58.023Z,1.19
2023-01-21T18:29:11.757Z,1.16
2023-01-21T18:32:24.526Z,1.14
2023-01-21T18:35:37.655Z,1.16
2023-01-21T18:38:50.004Z,1.15
2023-01-21T18:42:02.309Z,1.09
2023-01-21T18:45:21.277Z,1.09
2023-01-21T18:48:36.472Z,1.12
2023-01-21T18:51:48.987Z,1.10
2023-01-21T18:55:02.554Z,1.09
2023-01-21T18:58:19.565Z,1.09
2023-01-21T19:01:32.077Z,1.09
2023-01-21T19:04:44.459Z,1.10
2023-01-21T19:07:57.118Z,1.08
2023-01-21T19:11:09.496Z,1.02
2023-01-21T19:14:22.207Z,0.94
2023-01-21T19:17:38.353Z,0.97
2023-01-21T19:20:51.229Z,0.98
2023-01-21T19:24:03.513Z,1.02
2023-01-21T19:27:20.647Z,1.03
2023-01-21T19:30:35.690Z,1.05
2023-01-21T19:33:47.842Z,1.05
2023-01-21T19:37:00.742Z,1.06
2023-01-21T19:40:22.179Z,1.05
2023-01-21T19:43:34.726Z,1.00
2023-01-21T19:46:46.806Z,0.97
2023-01-21T19:49:59.419Z,0.99
2023-01-21T19:53:13.479Z,0.97
2023-01-21T19:56:29.517Z,0.98
2023-01-21T19:59:41.762Z,0.95
2023-01-21T20:02:54.482Z,0.98
2023-01-21T20:06:09.108Z,0.93
2023-01-21T20:09:21.897Z,0.92
2023-01-21T20:12:34.086Z,0.92
2023-01-21T20:15:48.662Z,0.92
2023-01-21T20:19:02.373Z,0.86
2023-01-21T20:22:14.937Z,0.86
2023-01-21T20:25:30.648Z,0.87
2023-01-21T20:28:49.650Z,0.88
2023-01-21T20:32:02.144Z,0.89
2023-01-21T20:35:17.039Z,0.87
2023-01-21T20:38:34.251Z,0.87
2023-01-21T20:41:46.355Z,0.90
2023-01-21T20:44:58.677Z,0.87
2023-01-21T20:48:14.584Z,0.86
2023-01-21T20:51:27.282Z,0.86
2023-01-21T20:54:40.750Z,0.84
2023-01-21T20:57:53.658Z,0.87
2023-01-21T21:01:06.084Z,0.85
2023-01-21T21:04:18.475Z,0.83
2023-01-21T21:07:30.485Z,0.79
2023-01-21T21:10:43.458Z,0.84
2023-01-21T21:13:56.717Z,0.89
2023-01-21T21:17:09.493Z,0.85
2023-01-21T21:20:27.586Z,0.83
2023-01-21T21:23:39.698Z,0.87
2023-01-21T21:26:51.992Z,0.86
2023-01-21T21:30:04.241Z,0.82
2023-01-21T21:33:24.263Z,0.84
2023-01-21T21:36:36.632Z,0.91
2023-01-21T21:39:48.923Z,0.85
2023-01-21T21:43:16.067Z,0.84
2023-01-21T21:46:42.721Z,0.85
2023-01-21T21:49:55.019Z,0.81
2023-01-21T21:53:08.282Z,0.82
2023-01-21T21:56:23.380Z,0.84
2023-01-21T21:59:35.833Z,0.79
2023-01-21T22:02:48.042Z,0.82
2023-01-21T22:06:03.065Z,0.84
2023-01-21T22:09:15.588Z,0.83
2023-01-21T22:12:27.717Z,0.78
2023-01-21T22:15:39.936Z,0.81
2023-01-21T22:18:52.410Z,0.83
2023-01-21T22:22:04.778Z,0.83
2023-01-21T22:25:17.719Z,0.81
2023-01-21T22:28:30.435Z,0.80
2023-01-21T22:31:43.664Z,0.81
2023-01-21T22:34:56.010Z,0.79
2023-01-21T22:38:08.249Z,0.75
2023-01-21T22:41:23.580Z,0.76
2023-01-21T22:44:35.895Z,0.78
2023-01-21T22:47:47.946Z,0.74
2023-01-21T22:51:02.542Z,0.74
2023-01-21T22:54:15.748Z,0.73
2023-01-21T22:57:28.356Z,0.73
2023-01-21T23:00:44.908Z,0.75
2023-01-21T23:03:57.124Z,0.70
2023-01-21T23:07:09.479Z,0.70
2023-01-21T23:10:22.134Z,0.68
2023-01-21T23:13:34.729Z,0.69
2023-01-21T23:16:47.119Z,0.69
2023-01-21T23:19:59.128Z,0.71
2023-01-21T23:23:11.345Z,0.73
2023-01-21T23:26:24.403Z,0.67
2023-01-21T23:29:37.830Z,0.69
2023-01-21T23:32:49.795Z,0.65
2023-01-21T23:36:05.111Z,0.67
2023-01-21T23:39:17.089Z,0.68
2023-01-21T23:42:29.214Z,0.70
2023-01-21T23:45:41.580Z,0.68
2023-01-21T23:48:53.804Z,0.64
2023-01-21T23:52:08.062Z,0.64
2023-01-21T23:55:20.364Z,0.66
2023-01-21T23:58:32.364Z,0.64
